createdAt,value
2022-11-08T05:21:17.575Z,17.23
2022-11-08T05:23:48.527Z,18.80
2022-11-08T05:26:19.004Z,18.05
2022-11-08T05:28:48.535Z,19.77
2022-11-08T05:31:17.427Z,19.05
2022-11-08T05:33:47.033Z,18.08
2022-11-08T05:36:17.611Z,15.50
2022-11-08T05:38:47.410Z,16.38
2022-11-08T05:41:19.303Z,17.73
2022-11-08T05:43:52.380Z,17.20
2022-11-08T05:46:23.432Z,15.93
2022-11-08T05:48:53.386Z,18.05
2022-11-08T05:51:22.721Z,18.90
2022-11-08T05:53:51.989Z,16.65
2022-11-08T05:56:21.106Z,15.27
2022-11-08T05:58:50.306Z,16.90
2022-11-08T06:01:46.118Z,14.63
2022-11-08T06:04:15.401Z,16.43
2022-11-08T06:06:44.651Z,18.80
2022-11-08T06:09:14.473Z,15.00
2022-11-08T06:11:43.725Z,14.52
2022-11-08T06:14:13.422Z,17.05
2022-11-08T06:16:42.394Z,15.13
2022-11-08T06:19:11.433Z,17.25
2022-11-08T06:21:40.361Z,17.30
2022-11-08T06:24:09.704Z,16.73
2022-11-08T06:26:38.533Z,14.80
2022-11-08T06:29:07.540Z,13.95
2022-11-08T06:31:41.875Z,12.65
2022-11-08T06:34:12.662Z,13.98
2022-11-08T06:36:41.837Z,11.55
2022-11-08T06:39:10.954Z,14.55
2022-11-08T06:41:40.183Z,15.10
2022-11-08T06:44:09.467Z,13.40
2022-11-08T06:46:38.306Z,14.83
2022-11-08T06:49:07.478Z,14.27
2022-11-08T06:51:36.896Z,13.80
2022-11-08T06:54:09.051Z,13.25
2022-11-08T06:56:38.955Z,13.07
2022-11-08T06:59:07.815Z,13.02
2022-11-08T07:01:38.439Z,11.82
2022-11-08T07:04:10.099Z,13.30
2022-11-08T07:06:38.873Z,11.95
2022-11-08T07:09:08.103Z,14.65
2022-11-08T07:11:37.472Z,13.37
2022-11-08T07:14:06.780Z,14.10
2022-11-08T07:16:35.618Z,13.27
2022-11-08T07:19:04.907Z,14.23
2022-11-08T07:21:33.853Z,15.25
2022-11-08T07:24:02.908Z,16.02
2022-11-08T07:26:31.860Z,15.93
2022-11-08T07:29:01.069Z,15.27
2022-11-08T07:31:30.010Z,16.08
2022-11-08T07:33:59.110Z,15.68
2022-11-08T07:36:27.951Z,16.40
2022-11-08T07:38:57.814Z,17.67
2022-11-08T07:41:28.294Z,16.90
2022-11-08T07:43:57.771Z,16.73
2022-11-08T07:46:26.649Z,18.85
2022-11-08T07:48:55.792Z,16.75
2022-11-08T07:51:24.658Z,18.15
2022-11-08T07:53:53.665Z,18.17
2022-11-08T07:56:22.594Z,19.25
2022-11-08T07:58:54.138Z,19.10
2022-11-08T08:01:23.165Z,18.13
2022-11-08T08:03:52.002Z,17.33
2022-11-08T08:06:21.420Z,17.73
2022-11-08T08:08:50.417Z,19.03
2022-11-08T08:11:20.344Z,20.25
2022-11-08T08:13:49.183Z,19.87
2022-11-08T08:16:18.312Z,18.17
2022-11-08T08:18:48.637Z,19.40
2022-11-08T08:21:19.550Z,19.35
2022-11-08T08:23:48.520Z,16.15
2022-11-08T08:26:17.571Z,19.35
2022-11-08T08:28:46.442Z,17.63
2022-11-08T08:31:15.499Z,20.38
2022-11-08T08:33:44.594Z,17.33
2022-11-08T08:36:13.970Z,15.90
2022-11-08T08:38:44.714Z,15.43
2022-11-08T08:41:13.981Z,19.88
2022-11-08T08:43:42.869Z,15.57
2022-11-08T08:46:11.967Z,15.20
2022-11-08T08:48:41.185Z,15.15
2022-11-08T08:51:10.457Z,16.30
2022-11-08T08:53:39.319Z,13.98
2022-11-08T08:56:09.296Z,13.15
2022-11-08T08:58:38.762Z,14.18
2022-11-08T09:04:01.830Z,15.73
2022-11-08T09:06:30.769Z,15.30
2022-11-08T09:08:59.853Z,15.75
2022-11-08T09:11:28.787Z,14.98
2022-11-08T09:13:58.041Z,14.07
2022-11-08T09:16:26.857Z,16.27
2022-11-08T09:18:56.030Z,15.70
2022-11-08T09:21:24.919Z,16.85
2022-11-08T09:23:54.391Z,18.00
2022-11-08T09:26:23.833Z,17.13
2022-11-08T09:28:53.139Z,15.35
2022-11-08T09:31:22.003Z,17.20
2022-11-08T09:33:52.629Z,17.50
2022-11-08T09:36:21.732Z,16.55
2022-11-08T09:38:50.784Z,15.90
2022-11-08T09:41:28.781Z,17.63
2022-11-08T09:44:35.976Z,15.85
2022-11-08T09:47:14.079Z,17.55
2022-11-08T09:50:09.473Z,14.88
2022-11-08T09:52:41.594Z,14.10
2022-11-08T09:55:52.403Z,15.68
2022-11-08T09:58:56.071Z,13.33
2022-11-08T10:01:27.458Z,14.87
2022-11-08T10:04:00.190Z,15.23
2022-11-08T10:07:03.211Z,15.77
2022-11-08T10:09:50.251Z,17.70
2022-11-08T10:12:26.190Z,16.20
2022-11-08T10:15:16.402Z,15.93
2022-11-08T10:17:54.633Z,16.15
2022-11-08T10:20:58.452Z,14.98
2022-11-08T10:23:58.467Z,14.68
2022-11-08T10:26:47.327Z,15.30
2022-11-08T10:29:22.953Z,14.50
2022-11-08T10:31:59.453Z,17.60
2022-11-08T10:34:35.112Z,15.77
2022-11-08T10:37:08.291Z,15.00
2022-11-08T10:39:43.678Z,13.90
2022-11-08T10:42:21.938Z,15.27
2022-11-08T10:44:51.336Z,15.82
2022-11-08T10:47:31.041Z,14.90
2022-11-08T10:50:04.054Z,14.30
2022-11-08T10:52:40.685Z,14.00
2022-11-08T10:55:29.258Z,21.45
2022-11-08T10:57:59.121Z,18.00
2022-11-08T11:00:31.207Z,16.05
2022-11-08T11:03:29.865Z,16.35
2022-11-08T11:06:07.527Z,15.85
2022-11-08T11:08:55.789Z,15.07
2022-11-08T11:11:26.534Z,13.07
2022-11-08T11:14:21.849Z,14.60
2022-11-08T11:17:11.078Z,15.18
2022-11-08T11:19:45.075Z,10.82
2022-11-08T11:22:16.045Z,12.75
2022-11-08T11:24:51.954Z,13.05
2022-11-08T11:27:33.551Z,13.90
2022-11-08T11:30:29.180Z,15.40
2022-11-08T11:33:01.748Z,12.20
2022-11-08T11:35:49.351Z,13.38
2022-11-08T11:38:41.074Z,13.07
2022-11-08T11:41:52.323Z,14.32
2022-11-08T11:44:34.474Z,14.90
2022-11-08T11:47:16.361Z,12.97
2022-11-08T11:49:46.870Z,12.90
2022-11-08T11:52:20.862Z,12.47
2022-11-08T11:54:51.234Z,11.52
2022-11-08T11:57:35.005Z,12.63
2022-11-08T12:00:10.575Z,13.73
2022-11-08T12:03:07.541Z,15.70
2022-11-08T12:05:47.690Z,12.70
2022-11-08T12:08:29.506Z,14.43
2022-11-08T12:11:20.903Z,11.23
2022-11-08T12:14:08.918Z,12.17
2022-11-08T12:16:51.809Z,14.10
2022-11-08T12:20:03.023Z,14.50
2022-11-08T12:22:47.111Z,13.80
2022-11-08T12:25:43.892Z,13.52
2022-11-08T12:28:46.915Z,13.90
2022-11-08T12:31:36.401Z,14.60
2022-11-08T12:34:18.091Z,15.15
2022-11-08T12:37:09.748Z,11.05
2022-11-08T12:40:02.791Z,14.57
2022-11-08T12:42:48.859Z,15.35
2022-11-08T12:45:35.854Z,13.60
2022-11-08T12:48:17.095Z,14.20
2022-11-08T12:50:46.314Z,13.65
2022-11-08T12:53:52.229Z,16.80
2022-11-08T12:56:29.128Z,15.05
2022-11-08T12:58:58.795Z,15.33
2022-11-08T13:01:27.977Z,13.32
2022-11-08T13:04:23.017Z,13.20
2022-11-08T13:07:05.131Z,14.13
2022-11-08T13:09:50.903Z,13.48
2022-11-08T13:12:40.931Z,13.48
2022-11-08T13:15:25.115Z,14.15
2022-11-08T13:18:10.773Z,14.52
2022-11-08T13:20:43.968Z,15.05
2022-11-08T13:23:34.320Z,12.75
2022-11-08T13:26:19.826Z,13.35
2022-11-08T13:28:49.610Z,14.90
2022-11-08T13:31:20.468Z,14.43
2022-11-08T13:34:09.648Z,13.23
2022-11-08T13:36:52.076Z,13.25
2022-11-08T13:39:33.111Z,13.75
2022-11-08T13:42:17.474Z,14.07
2022-11-08T13:45:01.192Z,13.52
2022-11-08T13:47:37.415Z,13.20
2022-11-08T13:50:29.252Z,14.15
2022-11-08T13:53:10.549Z,17.38
2022-11-08T13:55:46.701Z,12.38
2022-11-08T13:58:47.606Z,13.07
2022-11-08T14:01:19.679Z,11.50
2022-11-08T14:03:49.504Z,12.13
2022-11-08T14:06:48.701Z,12.43
2022-11-08T14:09:17.984Z,13.98
2022-11-08T14:11:57.782Z,11.43
2022-11-08T14:14:44.729Z,12.82
2022-11-08T14:17:20.131Z,11.93
2022-11-08T14:19:50.036Z,13.57
2022-11-08T14:22:28.634Z,14.18
2022-11-08T14:25:15.959Z,10.98
2022-11-08T14:27:44.990Z,11.27
2022-11-08T14:30:21.341Z,10.82
2022-11-08T14:33:05.806Z,13.07
2022-11-08T14:35:35.003Z,10.50
2022-11-08T14:38:04.768Z,13.05
2022-11-08T14:40:34.203Z,11.20
2022-11-08T14:43:03.748Z,11.73
2022-11-08T14:45:33.023Z,11.80
2022-11-08T14:48:06.221Z,11.52
2022-11-08T14:50:36.569Z,10.73
2022-11-08T14:53:24.588Z,10.57
2022-11-08T14:56:06.764Z,9.90
2022-11-08T14:58:35.860Z,11.00
2022-11-08T15:01:06.899Z,9.95
2022-11-08T15:03:37.128Z,11.65
2022-11-08T15:06:13.818Z,9.35
2022-11-08T15:08:54.004Z,9.70
2022-11-08T15:11:56.945Z,13.90
2022-11-08T15:14:29.907Z,10.20
2022-11-08T15:17:03.165Z,10.73
2022-11-08T15:19:45.633Z,11.07
2022-11-08T15:22:27.670Z,10.13
2022-11-08T15:25:18.399Z,10.15
2022-11-08T15:27:49.517Z,10.20
2022-11-08T15:30:21.646Z,9.32
2022-11-08T15:32:51.557Z,12.00
2022-11-08T15:35:23.673Z,10.05
2022-11-08T15:38:00.020Z,10.55
2022-11-08T15:40:32.918Z,10.13
2022-11-08T15:43:02.343Z,10.60
2022-11-08T15:45:36.692Z,10.48
2022-11-08T15:48:08.797Z,9.07
2022-11-08T15:50:38.056Z,9.27
2022-11-08T15:53:07.315Z,9.93
2022-11-08T15:55:41.769Z,9.45
2022-11-08T15:58:24.541Z,8.95
2022-11-08T16:00:53.858Z,8.48
2022-11-08T16:03:23.683Z,9.35
2022-11-08T16:05:52.763Z,8.73
2022-11-08T16:08:21.890Z,9.65
2022-11-08T16:10:59.086Z,13.50
2022-11-08T16:13:38.533Z,8.82
2022-11-08T16:16:15.135Z,9.30
2022-11-08T16:18:44.792Z,9.18
2022-11-08T16:21:15.177Z,9.07
2022-11-08T16:23:44.441Z,11.65
2022-11-08T16:26:18.471Z,8.75
2022-11-08T16:28:48.503Z,9.15
2022-11-08T16:31:21.717Z,9.43
2022-11-08T16:33:54.919Z,10.07
2022-11-08T16:36:26.295Z,8.85
2022-11-08T16:38:59.738Z,8.50
2022-11-08T16:41:31.637Z,9.20
2022-11-08T16:44:01.250Z,9.68
2022-11-08T16:46:30.587Z,10.20
2022-11-08T16:49:01.813Z,10.50
2022-11-08T16:51:31.702Z,8.70
2022-11-08T16:54:05.263Z,11.07
2022-11-08T16:56:34.407Z,9.45
2022-11-08T16:59:03.348Z,12.18
2022-11-08T17:01:34.633Z,11.23
2022-11-08T17:04:04.257Z,11.43
2022-11-08T17:06:34.755Z,8.95
2022-11-08T17:09:04.690Z,9.98
2022-11-08T17:11:34.191Z,9.65
2022-11-08T17:14:05.280Z,9.90
2022-11-08T17:16:34.781Z,10.82
2022-11-08T17:19:05.517Z,13.38
2022-11-08T17:21:50.582Z,8.88
2022-11-08T17:24:21.970Z,9.00
2022-11-08T17:26:52.411Z,10.40
2022-11-08T17:29:22.260Z,9.73
2022-11-08T17:31:54.552Z,10.88
2022-11-08T17:34:24.172Z,10.70
2022-11-08T17:36:53.919Z,10.27
2022-11-08T17:39:23.016Z,11.13
2022-11-08T17:41:52.485Z,9.25
2022-11-08T17:44:21.927Z,12.93
2022-11-08T17:46:51.622Z,10.17
2022-11-08T17:49:21.221Z,12.98
2022-11-08T17:51:50.106Z,11.40
2022-11-08T17:54:19.314Z,11.43
2022-11-08T17:56:48.691Z,10.35
2022-11-08T17:59:18.631Z,11.77
2022-11-08T18:01:47.603Z,9.00
2022-11-08T18:04:17.075Z,9.40
2022-11-08T18:06:46.261Z,10.70
2022-11-08T18:09:16.022Z,11.57
2022-11-08T18:11:50.840Z,10.73
2022-11-08T18:14:28.087Z,9.52
2022-11-08T18:16:58.465Z,11.40
2022-11-08T18:19:27.537Z,10.25
2022-11-08T18:21:56.485Z,11.82
2022-11-08T18:24:25.751Z,9.40
2022-11-08T18:26:55.011Z,9.05
2022-11-08T18:29:24.371Z,9.57
2022-11-08T18:31:54.293Z,11.35
2022-11-08T18:34:23.456Z,11.02
2022-11-08T18:36:52.710Z,9.52
2022-11-08T18:39:21.700Z,8.70
2022-11-08T18:41:50.730Z,10.60
2022-11-08T18:44:19.915Z,10.35
2022-11-08T18:46:48.933Z,9.90
2022-11-08T18:49:18.138Z,10.53
2022-11-08T18:51:52.976Z,11.20
2022-11-08T18:54:22.073Z,10.85
2022-11-08T18:56:51.044Z,9.13
2022-11-08T18:59:20.430Z,8.60
2022-11-08T19:01:49.565Z,9.93
2022-11-08T19:04:18.749Z,10.05
2022-11-08T19:06:53.082Z,10.82
2022-11-08T19:09:24.549Z,10.57
2022-11-08T19:11:54.697Z,9.95
2022-11-08T19:14:23.803Z,10.52
2022-11-08T19:16:56.939Z,10.93
2022-11-08T19:19:26.418Z,9.70
2022-11-08T19:21:55.294Z,11.88
2022-11-08T19:24:24.410Z,13.77
2022-11-08T19:26:53.405Z,10.48
2022-11-08T19:29:22.808Z,11.52
2022-11-08T19:31:51.704Z,14.73
2022-11-08T19:34:20.895Z,15.13
2022-11-08T19:36:55.689Z,14.95
2022-11-08T19:39:25.739Z,15.20
2022-11-08T19:41:54.618Z,14.68
2022-11-08T19:44:23.910Z,15.95
2022-11-08T19:46:52.914Z,16.55
2022-11-08T19:49:26.494Z,14.07
2022-11-08T19:51:56.556Z,16.08
2022-11-08T19:54:25.545Z,17.73
2022-11-08T19:57:10.008Z,14.52
2022-11-08T19:59:39.145Z,15.70
2022-11-08T20:02:08.122Z,18.17
2022-11-08T20:04:37.423Z,16.50
2022-11-08T20:07:06.488Z,15.13
2022-11-08T20:09:36.648Z,16.50
2022-11-08T20:12:09.804Z,17.00
2022-11-08T20:14:38.999Z,16.42
2022-11-08T20:17:07.976Z,15.77
2022-11-08T20:19:37.282Z,16.10
2022-11-08T20:22:06.131Z,13.77
2022-11-08T20:24:35.339Z,16.15
2022-11-08T20:27:04.323Z,18.02
2022-11-08T20:29:33.866Z,16.60
2022-11-08T20:32:09.313Z,19.50
2022-11-08T20:34:38.790Z,18.55
2022-11-08T20:37:07.766Z,24.38
2022-11-08T20:39:37.650Z,23.35
2022-11-08T20:42:06.628Z,20.83
2022-11-08T20:44:36.073Z,22.25
2022-11-08T20:47:06.679Z,22.20
2022-11-08T20:49:35.985Z,23.30
2022-11-08T20:52:04.864Z,24.40
2022-11-08T20:54:34.047Z,23.98
2022-11-08T20:57:02.836Z,23.98
2022-11-08T20:59:32.772Z,27.33
2022-11-08T21:02:01.875Z,30.20
2022-11-08T21:04:30.960Z,27.15
2022-11-08T21:08:00.384Z,29.33
2022-11-08T21:09:50.797Z,26.40
2022-11-08T21:12:21.031Z,28.85
2022-11-08T21:14:50.007Z,24.30
2022-11-08T21:17:22.772Z,21.63
2022-11-08T21:19:53.630Z,26.58
2022-11-08T21:22:22.990Z,26.20
2022-11-08T21:24:52.133Z,26.63
2022-11-08T21:27:23.643Z,25.83
2022-11-08T21:29:57.383Z,26.50
2022-11-08T21:32:26.576Z,28.85
2022-11-08T21:34:55.546Z,34.37
2022-11-08T21:37:24.707Z,29.50
2022-11-08T21:39:53.678Z,26.77
2022-11-08T21:42:22.743Z,27.98
2022-11-08T21:44:51.694Z,29.77
2022-11-08T21:47:20.808Z,30.40
2022-11-08T21:49:49.773Z,24.73
2022-11-08T21:52:19.326Z,26.45
2022-11-08T21:54:48.422Z,25.08
2022-11-08T21:57:17.762Z,28.73
2022-11-08T21:59:46.678Z,28.88
2022-11-08T22:02:17.622Z,27.17
2022-11-08T22:04:47.113Z,26.52
2022-11-08T22:07:16.172Z,24.60
2022-11-08T22:09:45.696Z,22.50
2022-11-08T22:12:14.733Z,24.73
2022-11-08T22:14:43.799Z,24.48
2022-11-08T22:17:13.029Z,21.35
2022-11-08T22:19:42.244Z,24.50
2022-11-08T22:22:11.747Z,24.05
2022-11-08T22:24:41.212Z,25.75
2022-11-08T22:27:10.286Z,28.67
2022-11-08T22:29:39.467Z,23.48
2022-11-08T22:32:08.533Z,24.52
2022-11-08T22:34:37.741Z,22.88
2022-11-08T22:37:06.525Z,21.65
2022-11-08T22:39:35.602Z,23.07
2022-11-08T22:42:09.242Z,20.47
2022-11-08T22:44:38.650Z,22.75
2022-11-08T22:47:07.550Z,20.10
2022-11-08T22:49:39.831Z,20.25
2022-11-08T22:52:13.707Z,20.48
2022-11-08T22:54:42.705Z,23.98
2022-11-08T22:57:12.243Z,21.67
2022-11-08T22:59:41.139Z,20.33
2022-11-08T23:02:10.191Z,22.85
2022-11-08T23:04:39.028Z,20.98
2022-11-08T23:07:08.334Z,20.43
2022-11-08T23:09:37.588Z,21.33
2022-11-08T23:12:29.690Z,22.17
2022-11-08T23:15:16.843Z,21.00
2022-11-08T23:17:46.269Z,18.05
2022-11-08T23:20:33.321Z,20.08
2022-11-08T23:23:20.966Z,20.42
2022-11-08T23:25:50.127Z,18.42
2022-11-08T23:28:42.150Z,22.40
2022-11-08T23:31:32.636Z,18.30
2022-11-08T23:34:01.851Z,19.67
2022-11-08T23:36:31.035Z,18.77
2022-11-08T23:39:00.515Z,19.00
2022-11-08T23:41:47.484Z,19.83
2022-11-08T23:44:25.411Z,17.47
2022-11-08T23:46:56.026Z,22.20
2022-11-08T23:49:25.318Z,18.65
2022-11-08T23:51:54.187Z,19.40
2022-11-08T23:54:23.505Z,20.63
2022-11-08T23:56:52.428Z,20.15
2022-11-08T23:59:21.145Z,22.02
